Saturday, July 21, 2018, 3:29 PM EDT
Back to Local

KEEN, Keene, Dillant-hopkins Airport

Location: Keene, NH, United States Lat: 42.9
Local Time: 3:29 PM EDT (19:29 GMT) Lon: -72.267
Time Zone: US/Eastern Elev: 488 ft

Show me the last for .
Show Decoded

2018-07-21 14:56 METAR KEEN 211856Z AUTO VRB04KT 10SM CLR 28/13 A3011 RMK AO2 SLP209 T02780133 =
2018-07-21 13:56 METAR KEEN 211756Z AUTO VRB04KT 9SM CLR 27/13 A3013 RMK AO2 SLP217 T02720128
                 10272 20206 58010 =
2018-07-21 12:56 METAR KEEN 211656Z AUTO 00000KT 10SM CLR 26/13 A3014 RMK AO2 SLP221 T02610128 =
2018-07-21 11:56 METAR KEEN 211556Z AUTO VRB03KT 10SM SCT041 26/14 A3016 RMK AO2 SLP226 T02560144
                 =
2018-07-21 10:56 METAR KEEN 211456Z AUTO 00000KT 10SM SCT024 OVC032 23/16 A3016 RMK AO2 SLP227
                 T02330161 58005 =
2018-07-21 10:42 METAR KEEN 211442Z AUTO 24006KT 9SM BKN025 23/16 A3016 RMK AO2 =
2018-07-21 10:28 METAR KEEN 211428Z AUTO 21006KT 10SM SCT021 23/16 A3017 RMK AO2 =
2018-07-21 09:56 METAR KEEN 211356Z AUTO 16005KT 10SM BKN019 21/16 A3017 RMK AO2 SLP230 T02060156
                 =
2018-07-21 08:56 METAR KEEN 211256Z AUTO 22007KT 10SM CLR 22/16 A3017 RMK AO2 SLP231 T02170161 =
2018-07-21 07:56 METAR KEEN 211156Z AUTO 16003KT 10SM CLR 18/15 A3017 RMK AO2 SLP231 T01830150
                 10189 20128 53003 =
2018-07-21 06:56 METAR KEEN 211056Z AUTO 00000KT 10SM CLR 16/14 A3017 RMK AO2 SLP228 T01610139 =
2018-07-21 05:56 METAR KEEN 210956Z AUTO 00000KT 10SM CLR 13/12 A3017 RMK AO2 SLP230 T01330117 =
2018-07-21 04:56 METAR KEEN 210856Z AUTO 00000KT 10SM BKN039 13/13 A3016 RMK AO2 SLP228 T01280128
                 53006 =
2018-07-21 04:27 METAR KEEN 210827Z AUTO 00000KT 3SM BR FEW039 13/13 A3016 RMK AO2 =
2018-07-21 04:17 METAR KEEN 210817Z AUTO 00000KT 1 3/4SM BR FEW039 13/12 A3016 RMK AO2 VIS 3/4V5
                 =
2018-07-21 04:03 METAR KEEN 210803Z AUTO 00000KT 3SM BR CLR 13/13 A3015 RMK AO2 =
2018-07-21 03:56 METAR KEEN 210756Z AUTO 00000KT 1 1/2SM BR CLR 13/13 A3015 RMK AO2 VIS 3/4V5
                 SLP223 T01330133 =
2018-07-21 02:56 METAR KEEN 210656Z AUTO 00000KT 9SM CLR 14/13 A3015 RMK AO2 SLP223 T01390133 =
2018-07-21 01:56 METAR KEEN 210556Z AUTO 00000KT 10SM CLR 14/14 A3015 RMK AO2 SLP222 T01440139
                 10261 20144 58001 =
2018-07-21 00:56 METAR KEEN 210456Z AUTO 00000KT 10SM CLR 16/14 A3015 RMK AO2 SLP224 T01560139
                 403110106 =
2018-07-20 23:56 METAR KEEN 210356Z AUTO 00000KT 10SM CLR 17/14 A3016 RMK AO2 SLP224 T01720139 =
2018-07-20 22:56 METAR KEEN 210256Z AUTO 00000KT 10SM CLR 19/14 A3015 RMK AO2 SLP223 T01940139
                 51011 =
2018-07-20 21:56 METAR KEEN 210156Z AUTO 00000KT 10SM CLR 20/14 A3015 RMK AO2 SLP222 T02000144 =
2018-07-20 20:56 METAR KEEN 210056Z AUTO VRB03KT 10SM CLR 23/14 A3013 RMK AO2 SLP218 T02280144 =
2018-07-20 19:56 METAR KEEN 202356Z AUTO 00000KT 10SM CLR 26/16 A3012 RMK AO2 SLP212 T02610156
                 10311 20261 55001 =
2018-07-20 18:56 METAR KEEN 202256Z AUTO 15003KT 10SM CLR 29/14 A3012 RMK AO2 SLP212 T02890139 =
2018-07-20 17:56 METAR KEEN 202156Z AUTO 16006KT 10SM CLR 29/13 A3012 RMK AO2 SLP214 T02890133 =
2018-07-20 16:56 METAR KEEN 202056Z AUTO 17005KT 10SM BKN070 31/14 A3012 RMK AO2 SLP214 T03060139
                 56011 =
2018-07-20 15:56 METAR KEEN 201956Z AUTO VRB03KT 9SM CLR 31/13 A3013 RMK AO2 SLP216 T03060133 =

Support USWX by starting your Amazon purchase here.